[2025-03-09 00:00:00, 2025-03-09 23:59:59] previous next
| time | temperature | air pressure | humidity | solar radiation | wind speed |
|---|---|---|---|---|---|
| 2025-03-09 07:03:34 | 3.6 | 996.8 | 99.0 | 21.7 | 0.0 |
| 2025-03-09 07:23:33 | 7.1 | 997.2 | 92.0 | 28.1 | 0.0 |
| 2025-03-09 07:43:33 | 10.7 | 997.2 | 73.0 | 33.7 | 0.0 |
| 2025-03-09 08:03:34 | 13.4 | 997.2 | 65.0 | 39.2 | 0.0 |
| 2025-03-09 08:23:34 | 14.1 | 997.2 | 63.0 | 44.0 | 0.0 |
| 2025-03-09 08:43:34 | 12.8 | 997.2 | 65.0 | 49.8 | 0.0 |
| 2025-03-09 09:03:35 | 14.5 | 997.2 | 61.0 | 60.6 | 0.0 |
| 2025-03-09 09:23:33 | 16.0 | 997.5 | 56.0 | 76.6 | 0.0 |
| 2025-03-09 09:43:34 | 14.0 | 996.8 | 63.0 | 58.7 | 0.0 |
| 2025-03-09 10:03:33 | 15.6 | 996.8 | 58.0 | 117.1 | 0.8 |
| 2025-03-09 10:23:34 | 15.5 | 996.5 | 60.0 | 121.2 | 2.0 |
| 2025-03-09 10:43:33 | 17.2 | 996.8 | 52.0 | 174.6 | 0.0 |
| 2025-03-09 11:03:34 | 17.9 | 996.5 | 52.0 | 207.9 | 0.0 |
| 2025-03-09 11:23:33 | 17.6 | 996.5 | 50.0 | 246.6 | 0.6 |
| 2025-03-09 11:43:34 | 17.2 | 996.2 | 48.0 | 279.7 | 0.0 |
| 2025-03-09 12:03:34 | 17.5 | 995.8 | 46.0 | 296.0 | 0.8 |
| 2025-03-09 12:23:33 | 18.5 | 995.8 | 43.0 | 296.5 | 0.0 |
| 2025-03-09 12:43:34 | 20.4 | 995.5 | 40.0 | 249.5 | 0.0 |
| 2025-03-09 13:03:33 | 18.4 | 995.2 | 43.0 | 272.9 | 0.8 |
| 2025-03-09 13:23:34 | 18.9 | 995.2 | 39.0 | 288.3 | 0.7 |
| 2025-03-09 13:43:33 | 19.7 | 994.8 | 40.0 | 276.6 | 0.0 |
| 2025-03-09 14:03:34 | 20.7 | 994.8 | 36.0 | 239.6 | 0.4 |
| 2025-03-09 14:23:33 | 19.4 | 994.5 | 38.0 | 274.2 | 1.5 |
| 2025-03-09 14:43:34 | 20.0 | 994.5 | 36.0 | 259.9 | 0.1 |
| 2025-03-09 15:03:34 | 19.9 | 994.5 | 36.0 | 253.4 | 1.3 |
| 2025-03-09 15:23:34 | 20.3 | 994.1 | 37.0 | 213.7 | 0.0 |
| 2025-03-09 15:43:35 | 19.4 | 994.1 | 41.0 | 167.1 | 2.0 |
| 2025-03-09 16:04:29 | 19.1 | 993.8 | 45.0 | 0.0 | 0.0 |
CSV export: /station/IWELLEN5/data?period=20250309T000000/20250309T235959&format=csv&tz=GMT